createdAt,value
2016-12-03T00:00:59.993Z,0
2016-12-03T00:01:59.875Z,0
2016-12-03T00:02:59.855Z,0
2016-12-03T00:03:59.926Z,0
2016-12-03T00:05:00.136Z,0
2016-12-03T00:05:59.795Z,0
2016-12-03T00:06:59.844Z,0
2016-12-03T00:07:59.874Z,0
2016-12-03T00:08:59.744Z,0
2016-12-03T00:09:59.730Z,0
2016-12-03T00:11:00.039Z,0
2016-12-03T00:11:59.681Z,0
2016-12-03T00:12:59.658Z,0
2016-12-03T00:13:59.889Z,0
2016-12-03T00:14:59.625Z,0
2016-12-03T00:16:00.591Z,0
2016-12-03T00:16:59.585Z,0
2016-12-03T00:17:59.564Z,0
2016-12-03T00:19:00.541Z,0
2016-12-03T00:19:59.529Z,0
2016-12-03T00:20:59.507Z,0
2016-12-03T00:21:59.814Z,0
2016-12-03T00:22:59.470Z,0
2016-12-03T00:23:59.517Z,0
2016-12-03T00:24:59.535Z,0
2016-12-03T00:25:59.446Z,0
2016-12-03T00:26:59.394Z,0
2016-12-03T00:27:59.742Z,0
2016-12-03T00:28:59.351Z,0
2016-12-03T00:29:59.335Z,0
2016-12-03T00:30:59.628Z,0
2016-12-03T00:31:59.298Z,0
2016-12-03T00:32:59.308Z,0
2016-12-03T00:33:59.382Z,0
2016-12-03T00:34:59.236Z,0
2016-12-03T00:35:59.220Z,0
2016-12-03T00:36:59.339Z,0
2016-12-03T00:37:59.212Z,0
2016-12-03T00:38:59.156Z,0
2016-12-03T00:39:59.458Z,0
2016-12-03T00:40:59.304Z,0
2016-12-03T00:41:59.105Z,0
2016-12-03T00:42:59.345Z,0
2016-12-03T00:43:59.064Z,0
2016-12-03T00:44:59.046Z,0
2016-12-03T00:45:59.473Z,0
2016-12-03T00:46:59.149Z,0
2016-12-03T00:47:58.989Z,0
2016-12-03T00:48:58.970Z,0
2016-12-03T00:49:59.264Z,0
2016-12-03T00:50:58.935Z,0
2016-12-03T00:51:58.916Z,0
2016-12-03T00:52:59.419Z,0
2016-12-03T00:53:58.874Z,0
2016-12-03T00:54:58.856Z,0
2016-12-03T00:55:59.137Z,0
2016-12-03T00:56:58.824Z,0
2016-12-03T00:57:58.791Z,0
2016-12-03T00:58:58.775Z,0
2016-12-03T00:59:58.757Z,0
2016-12-03T01:00:59.056Z,0
2016-12-03T01:01:59.021Z,0
2016-12-03T01:02:58.700Z,0
2016-12-03T01:03:58.694Z,0
2016-12-03T01:04:59.172Z,0
2016-12-03T01:05:58.643Z,0
2016-12-03T01:06:58.934Z,0
2016-12-03T01:07:59.045Z,0
2016-12-03T01:08:58.583Z,0
2016-12-03T01:09:58.566Z,0
2016-12-03T01:10:59.206Z,0
2016-12-03T01:11:59.157Z,0
2016-12-03T01:12:58.501Z,0
2016-12-03T01:13:58.483Z,0
2016-12-03T01:14:58.570Z,0
2016-12-03T01:15:58.450Z,0
2016-12-03T01:16:58.428Z,0
2016-12-03T01:17:58.732Z,0
2016-12-03T01:18:58.385Z,0
2016-12-03T01:19:58.366Z,0
2016-12-03T01:20:58.347Z,0
2016-12-03T01:21:58.927Z,0
2016-12-03T01:22:58.309Z,0
2016-12-03T01:23:58.288Z,0
2016-12-03T01:24:58.789Z,0
2016-12-03T01:25:58.280Z,0
2016-12-03T01:26:58.230Z,0
2016-12-03T01:27:58.801Z,0
2016-12-03T01:28:58.194Z,0
2016-12-03T01:29:58.171Z,0
2016-12-03T01:30:58.403Z,0
2016-12-03T01:31:58.291Z,0
2016-12-03T01:32:58.114Z,0
2016-12-03T01:33:59.009Z,0
2016-12-03T01:34:58.079Z,0
2016-12-03T01:35:58.058Z,0
2016-12-03T01:36:59.083Z,0
2016-12-03T01:37:58.018Z,0
2016-12-03T01:38:58.003Z,0
2016-12-03T01:39:58.813Z,0
2016-12-03T01:40:57.960Z,0
2016-12-03T01:41:57.946Z,0
2016-12-03T01:42:57.926Z,0
2016-12-03T01:43:58.423Z,0
2016-12-03T01:44:57.887Z,0
2016-12-03T01:45:57.863Z,0
2016-12-03T01:46:58.020Z,0
2016-12-03T01:47:57.824Z,0
2016-12-03T01:48:57.804Z,0
2016-12-03T01:49:57.955Z,0
2016-12-03T01:50:57.765Z,0
2016-12-03T01:51:57.754Z,0
2016-12-03T01:52:57.894Z,0
2016-12-03T01:53:57.704Z,0
2016-12-03T01:54:57.692Z,0
2016-12-03T01:55:57.819Z,0
2016-12-03T01:56:57.654Z,0
2016-12-03T01:57:57.632Z,0
2016-12-03T01:58:58.026Z,0
2016-12-03T01:59:57.625Z,0
2016-12-03T02:00:57.570Z,0
2016-12-03T02:01:58.027Z,0
2016-12-03T02:02:57.654Z,0
2016-12-03T02:03:57.513Z,0
2016-12-03T02:04:57.495Z,0
2016-12-03T02:05:57.573Z,0
2016-12-03T02:06:57.483Z,0
2016-12-03T02:07:57.436Z,0
2016-12-03T02:08:57.785Z,0
2016-12-03T02:09:57.396Z,0
2016-12-03T02:10:57.608Z,0
2016-12-03T02:11:57.358Z,0
2016-12-03T02:12:57.342Z,0
2016-12-03T02:13:57.456Z,0
2016-12-03T02:14:57.758Z,0
2016-12-03T02:15:57.305Z,0
2016-12-03T02:16:57.945Z,0
2016-12-03T02:17:57.300Z,0
2016-12-03T02:18:57.301Z,0
2016-12-03T02:19:58.195Z,0
2016-12-03T02:20:57.316Z,0
2016-12-03T02:21:57.302Z,0
2016-12-03T02:22:57.855Z,0
2016-12-03T02:23:57.623Z,0
2016-12-03T02:24:57.306Z,0
2016-12-03T02:25:57.788Z,0
2016-12-03T02:26:57.304Z,0
2016-12-03T02:27:57.308Z,0
2016-12-03T02:28:58.533Z,0
2016-12-03T02:29:57.313Z,0
2016-12-03T02:30:57.304Z,0
2016-12-03T02:31:58.560Z,0
2016-12-03T02:32:57.313Z,0
2016-12-03T02:33:57.298Z,0
2016-12-03T02:34:58.202Z,0
2016-12-03T02:35:57.313Z,0
2016-12-03T02:36:57.608Z,0
2016-12-03T02:37:58.225Z,0
2016-12-03T02:38:57.628Z,0
2016-12-03T02:39:57.306Z,0
2016-12-03T02:40:57.309Z,0
2016-12-03T02:41:57.837Z,0
2016-12-03T02:42:57.340Z,0
2016-12-03T02:43:57.312Z,0
2016-12-03T02:44:58.039Z,0
2016-12-03T02:45:57.319Z,0
2016-12-03T02:46:57.340Z,0
2016-12-03T02:47:58.503Z,0
2016-12-03T02:48:57.296Z,0
2016-12-03T02:49:57.304Z,0
2016-12-03T02:50:57.598Z,0
2016-12-03T02:51:57.311Z,0
2016-12-03T02:53:03.573Z,0
2016-12-03T02:53:57.518Z,0
2016-12-03T02:54:57.294Z,0
2016-12-03T02:55:57.311Z,0
2016-12-03T02:56:58.157Z,0
2016-12-03T02:57:57.295Z,0
2016-12-03T02:58:57.313Z,0
2016-12-03T02:59:58.158Z,0
2016-12-03T03:00:57.312Z,0
2016-12-03T03:01:57.304Z,0
2016-12-03T03:02:58.446Z,0
2016-12-03T03:03:57.321Z,0
2016-12-03T03:04:57.341Z,0
2016-12-03T03:05:58.168Z,0
2016-12-03T03:06:57.319Z,0
2016-12-03T03:07:57.309Z,0
2016-12-03T03:08:58.296Z,0
2016-12-03T03:09:57.305Z,0
2016-12-03T03:10:57.307Z,0
2016-12-03T03:11:58.596Z,0
2016-12-03T03:12:57.319Z,0
2016-12-03T03:13:57.317Z,0
2016-12-03T03:14:58.045Z,0
2016-12-03T03:15:57.309Z,0
2016-12-03T03:16:57.619Z,0
2016-12-03T03:17:57.310Z,0
2016-12-03T03:18:57.318Z,0
2016-12-03T03:19:58.491Z,0
2016-12-03T03:20:57.314Z,0
2016-12-03T03:21:57.313Z,0
2016-12-03T03:22:58.386Z,0
2016-12-03T03:23:57.318Z,0
2016-12-03T03:24:57.674Z,0
2016-12-03T03:25:57.365Z,0
2016-12-03T03:26:57.360Z,0
2016-12-03T03:27:57.603Z,0
2016-12-03T03:28:57.323Z,0
2016-12-03T03:29:57.625Z,0
2016-12-03T03:30:57.317Z,0
2016-12-03T03:31:57.310Z,0
2016-12-03T03:32:57.601Z,0
2016-12-03T03:33:57.293Z,0
2016-12-03T03:34:57.320Z,0
2016-12-03T03:35:57.455Z,0
2016-12-03T03:36:57.715Z,0
2016-12-03T03:37:57.305Z,0
2016-12-03T03:38:57.509Z,0
2016-12-03T03:39:57.632Z,0
2016-12-03T03:40:57.310Z,0
2016-12-03T03:41:57.324Z,0
2016-12-03T03:42:57.574Z,0
2016-12-03T03:43:57.346Z,0
2016-12-03T03:44:57.315Z,0
2016-12-03T03:45:57.767Z,0
2016-12-03T03:46:57.568Z,0
2016-12-03T03:47:57.323Z,0
2016-12-03T03:48:57.551Z,0
2016-12-03T03:49:57.321Z,0
2016-12-03T03:50:57.315Z,0
2016-12-03T03:51:57.581Z,0
2016-12-03T03:52:57.291Z,0
2016-12-03T03:53:57.312Z,0
2016-12-03T03:54:57.867Z,0
2016-12-03T03:55:57.319Z,0
2016-12-03T03:56:57.303Z,0
2016-12-03T03:57:57.322Z,0
2016-12-03T03:58:57.297Z,0
2016-12-03T03:59:58.455Z,0
2016-12-03T04:00:57.300Z,0
2016-12-03T04:01:57.309Z,0
2016-12-03T04:02:58.444Z,0
2016-12-03T04:03:57.303Z,0
2016-12-03T04:04:57.311Z,0
2016-12-03T04:05:58.356Z,0
2016-12-03T04:06:57.307Z,0
2016-12-03T04:07:57.671Z,0
2016-12-03T04:08:57.308Z,0
2016-12-03T04:09:57.305Z,0
2016-12-03T04:10:57.549Z,0
2016-12-03T04:11:57.304Z,0
2016-12-03T04:12:57.286Z,0
2016-12-03T04:13:58.276Z,0
2016-12-03T04:14:57.240Z,0
2016-12-03T04:15:57.218Z,0
2016-12-03T04:16:58.216Z,0
2016-12-03T04:17:57.186Z,0
2016-12-03T04:18:57.161Z,0
2016-12-03T04:19:57.764Z,0
2016-12-03T04:20:57.117Z,0
2016-12-03T04:21:57.103Z,0
2016-12-03T04:22:57.366Z,0
2016-12-03T04:23:57.062Z,0
2016-12-03T04:24:57.043Z,0
2016-12-03T04:25:57.023Z,0
2016-12-03T04:26:57.007Z,0
2016-12-03T04:27:56.986Z,0
2016-12-03T04:28:57.001Z,0
2016-12-03T04:29:56.963Z,0
2016-12-03T04:30:56.923Z,0
2016-12-03T04:31:56.905Z,0
2016-12-03T04:32:56.881Z,0
2016-12-03T04:33:56.857Z,0
2016-12-03T04:34:56.873Z,0
2016-12-03T04:35:56.823Z,0
2016-12-03T04:36:56.835Z,0
2016-12-03T04:37:56.806Z,0
2016-12-03T04:38:56.761Z,0
2016-12-03T04:39:56.746Z,0
2016-12-03T04:40:56.722Z,0
2016-12-03T04:41:56.706Z,0
2016-12-03T04:42:56.713Z,0
2016-12-03T04:43:56.663Z,0
2016-12-03T04:44:56.643Z,0
2016-12-03T04:45:56.623Z,0
2016-12-03T04:46:56.611Z,0
2016-12-03T04:47:56.587Z,0
2016-12-03T04:48:56.881Z,0
2016-12-03T04:49:56.545Z,0
2016-12-03T04:50:56.525Z,0
2016-12-03T04:51:56.505Z,0
2016-12-03T04:52:56.486Z,0
2016-12-03T04:53:56.584Z,0
2016-12-03T04:54:56.443Z,0
2016-12-03T04:55:56.429Z,0
2016-12-03T04:56:56.409Z,0
2016-12-03T04:57:56.383Z,0
2016-12-03T04:58:56.378Z,0
2016-12-03T04:59:56.343Z,0
2016-12-03T05:00:56.326Z,0
2016-12-03T05:01:56.310Z,0
2016-12-03T05:02:56.292Z,0
2016-12-03T05:03:56.298Z,0
2016-12-03T05:04:56.243Z,0
2016-12-03T05:05:56.225Z,0
2016-12-03T05:06:56.223Z,0
2016-12-03T05:07:56.188Z,0
2016-12-03T05:08:56.166Z,0
2016-12-03T05:09:56.146Z,0
2016-12-03T05:10:56.126Z,0
2016-12-03T05:11:56.114Z,0
2016-12-03T05:12:56.088Z,0
2016-12-03T05:13:56.069Z,0
2016-12-03T05:14:56.045Z,0
2016-12-03T05:15:56.030Z,0
2016-12-03T05:16:56.008Z,0
2016-12-03T05:17:55.987Z,0
2016-12-03T05:18:55.968Z,0
2016-12-03T05:19:55.945Z,0
2016-12-03T05:20:56.239Z,0
2016-12-03T05:21:55.911Z,0
2016-12-03T05:22:55.887Z,0
2016-12-03T05:23:55.874Z,0
2016-12-03T05:24:55.848Z,0
2016-12-03T05:25:55.831Z,0
2016-12-03T05:26:55.807Z,0
2016-12-03T05:27:55.792Z,0
2016-12-03T05:28:55.766Z,0
2016-12-03T05:29:55.750Z,0
2016-12-03T05:30:55.725Z,0
2016-12-03T05:31:55.725Z,0
2016-12-03T05:32:55.686Z,0
2016-12-03T05:33:55.665Z,0
2016-12-03T05:34:55.651Z,0
2016-12-03T05:35:55.948Z,0
2016-12-03T05:36:55.610Z,0
2016-12-03T05:37:55.587Z,0
2016-12-03T05:38:55.568Z,0
2016-12-03T05:39:55.544Z,0
2016-12-03T05:40:55.524Z,0
2016-12-03T05:41:55.511Z,0
2016-12-03T05:42:55.489Z,0
2016-12-03T05:43:55.488Z,0
2016-12-03T05:44:55.449Z,0
2016-12-03T05:45:55.430Z,0
2016-12-03T05:46:55.721Z,0
2016-12-03T05:47:55.390Z,0
2016-12-03T05:48:55.367Z,0
2016-12-03T05:49:55.345Z,0
2016-12-03T05:50:55.330Z,0
2016-12-03T05:51:55.310Z,0
2016-12-03T05:52:55.289Z,0
2016-12-03T05:53:55.271Z,0
2016-12-03T05:54:55.270Z,0
2016-12-03T05:55:55.235Z,0
2016-12-03T05:56:55.211Z,0
2016-12-03T05:57:55.193Z,0
2016-12-03T05:58:55.171Z,0
2016-12-03T05:59:55.164Z,0
2016-12-03T06:00:55.135Z,0
2016-12-03T06:01:55.118Z,0
2016-12-03T06:02:55.086Z,0
2016-12-03T06:03:55.071Z,0
2016-12-03T06:04:55.044Z,0
2016-12-03T06:05:55.030Z,0
2016-12-03T06:06:55.020Z,0
2016-12-03T06:07:54.989Z,0
2016-12-03T06:08:54.972Z,0
2016-12-03T06:09:54.952Z,0
2016-12-03T06:10:54.929Z,0
2016-12-03T06:11:54.922Z,0
2016-12-03T06:12:54.888Z,0
2016-12-03T06:13:54.872Z,0
2016-12-03T06:14:54.853Z,0
2016-12-03T06:15:54.836Z,0
2016-12-03T06:16:54.808Z,0
2016-12-03T06:17:54.795Z,0
2016-12-03T06:18:54.773Z,0
2016-12-03T06:19:54.752Z,0
2016-12-03T06:20:54.738Z,0
2016-12-03T06:21:54.712Z,0
2016-12-03T06:22:54.694Z,0
2016-12-03T06:23:54.671Z,0
2016-12-03T06:24:54.647Z,0
2016-12-03T06:25:54.630Z,0
2016-12-03T06:26:54.620Z,0
2016-12-03T06:27:54.594Z,0
2016-12-03T06:28:54.573Z,0
2016-12-03T06:29:54.550Z,0
2016-12-03T06:30:54.531Z,0
2016-12-03T06:31:54.510Z,0
2016-12-03T06:32:54.487Z,0
2016-12-03T06:33:54.467Z,0
2016-12-03T06:34:54.454Z,0
2016-12-03T06:35:54.435Z,0
2016-12-03T06:36:54.412Z,0
2016-12-03T06:37:54.397Z,0
2016-12-03T06:38:54.371Z,0
2016-12-03T06:39:54.352Z,0
2016-12-03T06:40:54.359Z,0
2016-12-03T06:41:54.308Z,0
2016-12-03T06:42:54.318Z,0
2016-12-03T06:43:54.283Z,0
2016-12-03T06:44:54.256Z,0
2016-12-03T06:45:54.589Z,0
2016-12-03T06:46:54.208Z,5
2016-12-03T06:47:54.190Z,5
2016-12-03T06:48:54.166Z,5
2016-12-03T06:49:54.159Z,5
2016-12-03T06:50:54.129Z,5
2016-12-03T06:51:54.110Z,5
2016-12-03T06:52:54.088Z,5
2016-12-03T06:53:54.072Z,5
2016-12-03T06:54:54.374Z,5
2016-12-03T06:55:54.035Z,10
2016-12-03T06:56:54.015Z,10
2016-12-03T06:57:53.996Z,10
2016-12-03T06:58:53.971Z,10
2016-12-03T06:59:53.956Z,10
2016-12-03T07:00:53.931Z,10
2016-12-03T07:01:53.910Z,15
2016-12-03T07:02:53.894Z,15
2016-12-03T07:03:53.870Z,15
2016-12-03T07:04:53.855Z,15
2016-12-03T07:05:54.150Z,15
2016-12-03T07:06:53.820Z,15
2016-12-03T07:07:53.783Z,20
2016-12-03T07:08:53.773Z,20
2016-12-03T07:09:53.748Z,20
2016-12-03T07:10:54.049Z,20
2016-12-03T07:11:53.721Z,20
2016-12-03T07:12:53.692Z,20
2016-12-03T07:13:53.669Z,25
2016-12-03T07:14:53.648Z,25
2016-12-03T07:15:53.629Z,25
2016-12-03T07:16:53.611Z,25
2016-12-03T07:17:53.595Z,25
2016-12-03T07:18:53.573Z,25
2016-12-03T07:19:53.552Z,30
2016-12-03T07:20:53.569Z,30
2016-12-03T07:21:53.507Z,30
2016-12-03T07:22:53.502Z,30
2016-12-03T07:23:53.482Z,30
2016-12-03T07:24:53.453Z,30
2016-12-03T07:25:53.449Z,35
2016-12-03T07:26:53.414Z,35
2016-12-03T07:27:53.395Z,35
2016-12-03T07:28:53.373Z,35
2016-12-03T07:29:53.366Z,35
2016-12-03T07:30:53.332Z,35
2016-12-03T07:31:53.314Z,35
2016-12-03T07:32:53.295Z,40
2016-12-03T07:33:53.275Z,40
2016-12-03T07:34:53.258Z,40
2016-12-03T07:35:53.235Z,40
2016-12-03T07:36:53.218Z,40
2016-12-03T07:37:53.196Z,40
2016-12-03T07:38:53.174Z,40
2016-12-03T07:39:53.154Z,45
2016-12-03T07:40:53.137Z,45
2016-12-03T07:41:53.116Z,45
2016-12-03T07:42:53.098Z,45
2016-12-03T07:43:53.077Z,45
2016-12-03T07:44:53.058Z,45
2016-12-03T07:45:53.039Z,45
2016-12-03T07:46:53.019Z,45
2016-12-03T07:47:52.998Z,50
2016-12-03T07:48:53.002Z,50
2016-12-03T07:49:52.985Z,50
2016-12-03T07:50:52.936Z,50
2016-12-03T07:51:52.938Z,50
2016-12-03T07:52:53.567Z,50
2016-12-03T07:53:53.260Z,50
2016-12-03T07:54:53.205Z,55
2016-12-03T07:55:52.888Z,55
2016-12-03T07:56:52.855Z,55
2016-12-03T07:57:52.833Z,55
2016-12-03T07:58:52.812Z,55
2016-12-03T07:59:52.796Z,55
2016-12-03T08:00:52.798Z,55
2016-12-03T08:01:52.756Z,55
2016-12-03T08:02:53.052Z,55
2016-12-03T08:03:52.708Z,55
2016-12-03T08:04:52.692Z,55
2016-12-03T08:05:52.671Z,55
2016-12-03T08:06:52.655Z,60
2016-12-03T08:07:52.644Z,60
2016-12-03T08:08:52.611Z,60
2016-12-03T08:09:52.595Z,60
2016-12-03T08:10:52.575Z,60
2016-12-03T08:11:52.553Z,60
2016-12-03T08:12:52.535Z,60
2016-12-03T08:13:52.512Z,60
2016-12-03T08:14:52.497Z,60
2016-12-03T08:15:52.475Z,60
2016-12-03T08:16:52.456Z,60
2016-12-03T08:17:52.447Z,60
2016-12-03T08:18:52.416Z,60
2016-12-03T08:19:52.717Z,65
2016-12-03T08:20:52.378Z,65
2016-12-03T08:21:52.362Z,65
2016-12-03T08:22:52.357Z,65
2016-12-03T08:23:52.317Z,65
2016-12-03T08:24:52.375Z,65
2016-12-03T08:25:52.278Z,65
2016-12-03T08:26:52.263Z,65
2016-12-03T08:27:52.241Z,65
2016-12-03T08:28:52.220Z,65
2016-12-03T08:29:52.202Z,65
2016-12-03T08:30:52.185Z,65
2016-12-03T08:31:52.187Z,65
2016-12-03T08:32:52.152Z,65
2016-12-03T08:33:52.125Z,65
2016-12-03T08:34:52.107Z,65
2016-12-03T08:35:52.087Z,70
2016-12-03T08:36:52.064Z,70
2016-12-03T08:37:52.051Z,70
2016-12-03T08:38:52.026Z,70
2016-12-03T08:39:52.009Z,70
2016-12-03T08:40:51.988Z,70
2016-12-03T08:41:51.966Z,70
2016-12-03T08:42:51.979Z,70
2016-12-03T08:43:51.941Z,70
2016-12-03T08:44:51.917Z,70
2016-12-03T08:45:51.891Z,70
2016-12-03T08:46:51.874Z,70
2016-12-03T08:47:51.849Z,70
2016-12-03T08:48:51.838Z,70
2016-12-03T08:49:51.814Z,70
2016-12-03T08:50:51.832Z,70
2016-12-03T08:51:51.775Z,70
2016-12-03T08:52:51.758Z,70
2016-12-03T08:53:51.743Z,70
2016-12-03T08:54:51.717Z,75
2016-12-03T08:55:51.706Z,75
2016-12-03T08:56:51.683Z,75
2016-12-03T08:57:51.659Z,75
2016-12-03T08:58:51.639Z,75
2016-12-03T08:59:51.624Z,75
2016-12-03T09:00:51.603Z,75
2016-12-03T09:01:51.579Z,75
2016-12-03T09:02:51.564Z,75
2016-12-03T09:03:51.547Z,75
2016-12-03T09:04:51.526Z,75
2016-12-03T09:05:51.509Z,75
2016-12-03T09:06:51.483Z,75
2016-12-03T09:07:51.471Z,75
2016-12-03T09:08:51.448Z,75
2016-12-03T09:09:51.435Z,75
2016-12-03T09:10:51.410Z,75
2016-12-03T09:11:51.398Z,75
2016-12-03T09:12:51.376Z,75
2016-12-03T09:13:51.383Z,75
2016-12-03T09:14:51.336Z,75
2016-12-03T09:15:51.331Z,80
2016-12-03T09:16:51.315Z,75
2016-12-03T09:17:51.290Z,80
2016-12-03T09:18:51.263Z,80
2016-12-03T09:19:51.240Z,80
2016-12-03T09:20:51.226Z,80
2016-12-03T09:21:51.210Z,80
2016-12-03T09:22:51.184Z,80
2016-12-03T09:23:51.163Z,80
2016-12-03T09:24:51.151Z,80
2016-12-03T09:25:51.136Z,80
2016-12-03T09:26:51.111Z,80
2016-12-03T09:27:51.088Z,80
2016-12-03T09:28:51.069Z,80
2016-12-03T09:29:51.052Z,80
2016-12-03T09:30:51.043Z,80
2016-12-03T09:31:51.019Z,80
2016-12-03T09:32:51.005Z,75
2016-12-03T09:33:50.984Z,80
2016-12-03T09:34:50.960Z,75
2016-12-03T09:35:50.947Z,75
2016-12-03T09:36:50.924Z,80
2016-12-03T09:37:50.915Z,80
2016-12-03T09:38:50.891Z,80
2016-12-03T09:39:50.874Z,80
2016-12-03T09:40:50.852Z,80
2016-12-03T09:41:51.153Z,80
2016-12-03T09:42:50.808Z,80
2016-12-03T09:43:50.795Z,80
2016-12-03T09:44:50.772Z,80
2016-12-03T09:45:50.759Z,80
2016-12-03T09:46:50.735Z,80
2016-12-03T09:47:50.719Z,80
2016-12-03T09:48:51.023Z,80
2016-12-03T09:49:50.684Z,80
2016-12-03T09:50:50.661Z,80
2016-12-03T09:51:50.645Z,80
2016-12-03T09:52:50.627Z,80
2016-12-03T09:53:50.604Z,80
2016-12-03T09:54:50.593Z,80
2016-12-03T09:55:50.567Z,80
2016-12-03T09:56:50.557Z,80
2016-12-03T09:57:50.532Z,80
2016-12-03T09:58:50.516Z,80
2016-12-03T09:59:50.500Z,80
2016-12-03T10:00:50.481Z,80
2016-12-03T10:01:50.461Z,80
2016-12-03T10:02:50.437Z,80
2016-12-03T10:03:50.429Z,80
2016-12-03T10:04:50.407Z,80
2016-12-03T10:05:50.391Z,80
2016-12-03T10:06:50.372Z,80
2016-12-03T10:07:50.375Z,85
2016-12-03T10:08:50.337Z,85
2016-12-03T10:09:50.320Z,85
2016-12-03T10:10:50.323Z,85
2016-12-03T10:11:50.281Z,85
2016-12-03T10:12:50.577Z,85
2016-12-03T10:13:50.258Z,85
2016-12-03T10:14:50.219Z,85
2016-12-03T10:15:50.212Z,85
2016-12-03T10:16:50.184Z,85
2016-12-03T10:17:50.168Z,85
2016-12-03T10:18:50.153Z,85
2016-12-03T10:19:50.137Z,85
2016-12-03T10:20:50.124Z,85
2016-12-03T10:21:50.430Z,85
2016-12-03T10:22:50.078Z,85
2016-12-03T10:23:50.058Z,90
2016-12-03T10:24:50.045Z,90
2016-12-03T10:25:50.024Z,90
2016-12-03T10:26:50.010Z,90
2016-12-03T10:27:49.988Z,90
2016-12-03T10:28:49.970Z,90
2016-12-03T10:29:49.954Z,90
2016-12-03T10:30:49.937Z,90
2016-12-03T10:31:49.922Z,90
2016-12-03T10:32:49.899Z,90
2016-12-03T10:33:49.883Z,90
2016-12-03T10:34:49.863Z,90
2016-12-03T10:35:49.844Z,90
2016-12-03T10:36:49.830Z,90
2016-12-03T10:37:49.811Z,90
2016-12-03T10:38:49.794Z,90
2016-12-03T10:39:49.776Z,90
2016-12-03T10:40:49.762Z,90
2016-12-03T10:41:49.740Z,90
2016-12-03T10:42:49.713Z,90
2016-12-03T10:43:49.715Z,90
2016-12-03T10:44:49.691Z,90
2016-12-03T10:45:49.667Z,90
2016-12-03T10:46:49.652Z,90
2016-12-03T10:47:49.633Z,90
2016-12-03T10:48:49.615Z,90
2016-12-03T10:49:49.599Z,90
2016-12-03T10:50:49.899Z,90
2016-12-03T10:51:49.560Z,90
2016-12-03T10:52:49.545Z,90
2016-12-03T10:53:49.526Z,90
2016-12-03T10:54:49.512Z,90
2016-12-03T10:55:49.492Z,90
2016-12-03T10:56:49.476Z,90
2016-12-03T10:57:49.458Z,90
2016-12-03T10:58:49.437Z,90
2016-12-03T10:59:49.747Z,90
2016-12-03T11:00:49.717Z,90
2016-12-03T11:01:49.395Z,90
2016-12-03T11:02:49.374Z,90
2016-12-03T11:03:49.357Z,90
2016-12-03T11:04:49.343Z,90
2016-12-03T11:05:49.326Z,90
2016-12-03T11:06:49.310Z,90
2016-12-03T11:07:49.284Z,90
2016-12-03T11:08:49.272Z,90
2016-12-03T11:09:49.248Z,90
2016-12-03T11:10:49.551Z,90
2016-12-03T11:11:49.224Z,90
2016-12-03T11:12:49.249Z,90
2016-12-03T11:13:49.181Z,90
2016-12-03T11:14:49.160Z,90
2016-12-03T11:15:49.148Z,90
2016-12-03T11:16:49.131Z,90
2016-12-03T11:17:49.116Z,90
2016-12-03T11:18:49.089Z,90
2016-12-03T11:19:49.076Z,90
2016-12-03T11:20:49.063Z,90
2016-12-03T11:21:49.528Z,90
2016-12-03T11:22:49.026Z,90
2016-12-03T11:23:49.014Z,90
2016-12-03T11:24:48.994Z,90
2016-12-03T11:25:49.328Z,90
2016-12-03T11:26:48.964Z,90
2016-12-03T11:27:48.946Z,90
2016-12-03T11:28:48.932Z,90
2016-12-03T11:29:48.908Z,90
2016-12-03T11:30:48.890Z,90
2016-12-03T11:31:48.869Z,90
2016-12-03T11:32:48.857Z,90
2016-12-03T11:33:49.160Z,90
2016-12-03T11:34:48.826Z,90
2016-12-03T11:35:48.808Z,85
2016-12-03T11:36:48.795Z,85
2016-12-03T11:37:48.777Z,85
2016-12-03T11:38:49.075Z,85
2016-12-03T11:39:48.734Z,85
2016-12-03T11:40:48.721Z,85
2016-12-03T11:41:48.711Z,85
2016-12-03T11:42:48.694Z,85
2016-12-03T11:43:48.764Z,85
2016-12-03T11:44:48.658Z,85
2016-12-03T11:45:48.649Z,85
2016-12-03T11:46:48.618Z,85
2016-12-03T11:47:48.605Z,85
2016-12-03T11:48:48.593Z,85
2016-12-03T11:49:48.577Z,85
2016-12-03T11:50:48.562Z,85
2016-12-03T11:51:48.541Z,85
2016-12-03T11:52:48.516Z,85
2016-12-03T11:53:48.513Z,85
2016-12-03T11:54:48.815Z,85
2016-12-03T11:55:48.464Z,85
2016-12-03T11:56:48.450Z,85
2016-12-03T11:57:48.433Z,85
2016-12-03T11:58:48.419Z,85
2016-12-03T11:59:48.431Z,85
2016-12-03T12:00:48.388Z,85
2016-12-03T12:01:48.367Z,85
2016-12-03T12:02:48.353Z,85
2016-12-03T12:03:48.366Z,85
2016-12-03T12:04:48.321Z,85
2016-12-03T12:05:48.298Z,85
2016-12-03T12:06:48.316Z,85
2016-12-03T12:07:48.270Z,85
2016-12-03T12:08:48.252Z,85
2016-12-03T12:09:48.233Z,85
2016-12-03T12:10:48.218Z,85
2016-12-03T12:11:48.201Z,85
2016-12-03T12:12:48.240Z,85
2016-12-03T12:13:48.162Z,85
2016-12-03T12:14:48.151Z,85
2016-12-03T12:15:48.139Z,85
2016-12-03T12:16:48.118Z,85
2016-12-03T12:17:48.096Z,85
2016-12-03T12:18:48.088Z,85
2016-12-03T12:19:48.067Z,85
2016-12-03T12:20:48.049Z,85
2016-12-03T12:21:48.032Z,85
2016-12-03T12:22:48.023Z,85
2016-12-03T12:23:48.001Z,85
2016-12-03T12:24:47.989Z,85
2016-12-03T12:25:47.966Z,85
2016-12-03T12:26:47.949Z,85
2016-12-03T12:27:47.933Z,85
2016-12-03T12:28:47.922Z,85
2016-12-03T12:29:47.903Z,85
2016-12-03T12:30:47.882Z,85
2016-12-03T12:31:47.896Z,80
2016-12-03T12:32:47.848Z,80
2016-12-03T12:33:47.836Z,80
2016-12-03T12:34:47.817Z,80
2016-12-03T12:35:47.805Z,80
2016-12-03T12:36:47.783Z,80
2016-12-03T12:37:47.768Z,80
2016-12-03T12:38:47.757Z,80
2016-12-03T12:39:47.728Z,80
2016-12-03T12:40:48.025Z,80
2016-12-03T12:41:47.702Z,80
2016-12-03T12:42:47.705Z,80
2016-12-03T12:43:47.699Z,80
2016-12-03T12:44:47.654Z,80
2016-12-03T12:45:47.634Z,80
2016-12-03T12:46:47.617Z,80
2016-12-03T12:47:47.601Z,80
2016-12-03T12:48:47.578Z,80
2016-12-03T12:49:47.602Z,80
2016-12-03T12:50:47.557Z,80
2016-12-03T12:51:47.537Z,80
2016-12-03T12:52:47.520Z,80
2016-12-03T12:53:47.496Z,80
2016-12-03T12:54:47.491Z,80
2016-12-03T12:55:47.482Z,80
2016-12-03T12:56:47.773Z,75
2016-12-03T12:57:47.430Z,75
2016-12-03T12:58:47.413Z,75
2016-12-03T12:59:47.395Z,75
2016-12-03T13:00:47.385Z,75
2016-12-03T13:01:47.359Z,75
2016-12-03T13:02:47.337Z,75
2016-12-03T13:03:47.330Z,75
2016-12-03T13:04:47.316Z,75
2016-12-03T13:05:47.298Z,75
2016-12-03T13:06:47.602Z,75
2016-12-03T13:07:47.263Z,75
2016-12-03T13:08:47.249Z,75
2016-12-03T13:09:47.231Z,75
2016-12-03T13:10:47.213Z,75
2016-12-03T13:11:47.537Z,75
2016-12-03T13:12:47.177Z,75
2016-12-03T13:13:47.478Z,75
2016-12-03T13:14:47.143Z,75
2016-12-03T13:15:47.135Z,75
2016-12-03T13:16:47.109Z,70
2016-12-03T13:17:47.096Z,70
2016-12-03T13:18:47.078Z,70
2016-12-03T13:19:47.063Z,70
2016-12-03T13:20:47.049Z,70
2016-12-03T13:21:47.036Z,70
2016-12-03T13:22:47.016Z,70
2016-12-03T13:23:47.000Z,70
2016-12-03T13:24:46.978Z,70
2016-12-03T13:25:46.990Z,70
2016-12-03T13:26:46.943Z,70
2016-12-03T13:27:46.960Z,70
2016-12-03T13:28:46.915Z,70
2016-12-03T13:29:46.893Z,70
2016-12-03T13:30:46.873Z,70
2016-12-03T13:31:46.860Z,70
2016-12-03T13:32:46.850Z,70
2016-12-03T13:33:46.825Z,65
2016-12-03T13:34:46.808Z,65
2016-12-03T13:35:46.799Z,65
2016-12-03T13:36:46.778Z,65
2016-12-03T13:37:46.767Z,65
2016-12-03T13:38:46.748Z,65
2016-12-03T13:39:46.729Z,65
2016-12-03T13:40:46.714Z,65
2016-12-03T13:41:46.693Z,65
2016-12-03T13:42:46.676Z,65
2016-12-03T13:43:46.658Z,65
2016-12-03T13:44:46.641Z,65
2016-12-03T13:45:46.627Z,65
2016-12-03T13:46:46.616Z,65
2016-12-03T13:47:46.601Z,60
2016-12-03T13:48:46.603Z,60
2016-12-03T13:49:46.556Z,60
2016-12-03T13:50:46.542Z,60
2016-12-03T13:51:46.525Z,60
2016-12-03T13:52:46.517Z,60
2016-12-03T13:53:46.491Z,60
2016-12-03T13:54:46.473Z,60
2016-12-03T13:55:46.451Z,60
2016-12-03T13:56:46.434Z,60
2016-12-03T13:57:46.424Z,60
2016-12-03T13:58:46.409Z,60
2016-12-03T13:59:46.394Z,60
2016-12-03T14:00:46.381Z,60
2016-12-03T14:01:46.356Z,60
2016-12-03T14:02:46.335Z,60
2016-12-03T14:03:46.645Z,60
2016-12-03T14:04:46.310Z,60
2016-12-03T14:05:46.293Z,60
2016-12-03T14:06:46.282Z,55
2016-12-03T14:07:46.259Z,55
2016-12-03T14:08:46.241Z,55
2016-12-03T14:09:46.220Z,55
2016-12-03T14:10:46.207Z,55
2016-12-03T14:11:46.192Z,50
2016-12-03T14:12:46.170Z,50
2016-12-03T14:13:46.155Z,50
2016-12-03T14:14:46.137Z,50
2016-12-03T14:15:46.142Z,50
2016-12-03T14:16:46.102Z,45
2016-12-03T14:17:46.089Z,45
2016-12-03T14:18:46.386Z,45
2016-12-03T14:19:46.048Z,45
2016-12-03T14:20:46.038Z,45
2016-12-03T14:21:46.021Z,45
2016-12-03T14:22:46.005Z,45
2016-12-03T14:23:45.988Z,40
2016-12-03T14:24:45.968Z,40
2016-12-03T14:25:45.957Z,40
2016-12-03T14:26:45.930Z,40
2016-12-03T14:27:45.930Z,40
2016-12-03T14:28:45.907Z,40
2016-12-03T14:29:45.881Z,40
2016-12-03T14:30:45.870Z,40